Time;durP1;ratioP1;P1;durP2;ratioP2;P2;SDS_P1;SDS_P2;PMS_P1;PMS_P2;Temp;Humidity;BMP_temperature;BMP_pressure;BME280_temperature;BME280_humidity;BME280_pressure;Samples;Min_cycle;Max_cycle;Signal;HPM_P1;HPM_P2
2023/01/03 00:01:12;;;;;;;17.10;5.88;;;;;;;;;;5053738;28;20531;-42
2023/01/03 00:03:38;;;;;;;12.38;5.68;;;;;;;;;;5052841;28;20183;-42
2023/01/03 00:06:04;;;;;;;11.95;5.78;;;;;;;;;;5053759;28;20028;-42
2023/01/03 00:08:29;;;;;;;9.10;4.97;;;;;;;;;;5053980;28;20033;-44
2023/01/03 00:10:55;;;;;;;11.50;6.43;;;;;;;;;;5053524;28;20459;-42
2023/01/03 00:13:20;;;;;;;7.20;4.05;;;;;;;;;;5053636;28;20041;-41
2023/01/03 00:15:45;;;;;;;9.55;4.75;;;;;;;;;;5053506;28;20087;-41
2023/01/03 00:18:11;;;;;;;7.40;5.32;;;;;;;;;;5053770;28;20040;-42
2023/01/03 00:20:36;;;;;;;9.73;4.45;;;;;;;;;;5053504;28;20100;-42
2023/01/03 00:23:01;;;;;;;4.47;3.33;;;;;;;;;;5053254;28;20048;-42
2023/01/03 00:25:27;;;;;;;6.43;3.70;;;;;;;;;;5053680;28;20056;-41
2023/01/03 00:27:53;;;;;;;7.00;4.43;;;;;;;;;;5053326;28;20057;-41
2023/01/03 00:30:19;;;;;;;9.68;4.47;;;;;;;;;;5053565;28;20527;-42
2023/01/03 00:32:44;;;;;;;8.23;4.05;;;;;;;;;;5053068;28;20383;-42
2023/01/03 00:35:10;;;;;;;8.93;4.60;;;;;;;;;;5053183;28;20049;-41
2023/01/03 00:37:35;;;;;;;5.22;4.00;;;;;;;;;;5053030;28;20044;-42
2023/01/03 00:40:00;;;;;;;6.88;4.25;;;;;;;;;;5053128;28;20036;-41
2023/01/03 00:42:26;;;;;;;7.72;4.43;;;;;;;;;;5052930;28;20037;-42
2023/01/03 00:44:51;;;;;;;8.13;4.22;;;;;;;;;;5052821;28;20021;-42
2023/01/03 00:47:18;;;;;;;6.00;3.90;;;;;;;;;;5052930;28;20108;-42
2023/01/03 00:49:43;;;;;;;6.75;4.22;;;;;;;;;;5052854;28;20116;-42
2023/01/03 00:52:09;;;;;;;9.13;4.75;;;;;;;;;;5052827;28;20024;-42
2023/01/03 00:54:35;;;;;;;8.68;3.90;;;;;;;;;;5052726;28;20028;-42
2023/01/03 00:57:00;;;;;;;8.70;4.70;;;;;;;;;;5052800;28;20174;-41
2023/01/03 00:59:25;;;;;;;6.97;4.13;;;;;;;;;;5051770;28;20423;-41
2023/01/03 01:01:52;;;;;;;6.95;3.95;;;;;;;;;;5052363;28;20655;-42
2023/01/03 01:04:29;;;;;;;7.28;4.82;;;;;;;;;;5052612;28;20029;-41
2023/01/03 01:06:56;;;;;;;6.40;3.28;;;;;;;;;;5052402;28;20058;-42
2023/01/03 01:09:23;;;;;;;7.35;3.85;;;;;;;;;;5051315;28;20513;-42
2023/01/03 01:11:49;;;;;;;5.10;3.22;;;;;;;;;;5052689;28;20032;-42
2023/01/03 01:14:18;;;;;;;8.82;4.28;;;;;;;;;;5052258;28;20375;-42
2023/01/03 01:16:49;;;;;;;7.57;3.60;;;;;;;;;;5051088;28;20028;-42
2023/01/03 01:19:15;;;;;;;6.10;3.25;;;;;;;;;;5052390;28;20035;-41
2023/01/03 01:21:40;;;;;;;5.20;3.88;;;;;;;;;;5052222;28;20021;-41
2023/01/03 01:24:06;;;;;;;5.88;3.63;;;;;;;;;;5052121;28;20399;-41
2023/01/03 01:26:31;;;;;;;6.20;3.72;;;;;;;;;;5052535;28;20033;-41
2023/01/03 01:28:56;;;;;;;5.35;3.22;;;;;;;;;;5052044;28;20502;-42
2023/01/03 01:31:23;;;;;;;5.25;3.45;;;;;;;;;;5052370;28;20070;-42
2023/01/03 01:33:49;;;;;;;8.23;3.25;;;;;;;;;;5052237;28;20025;-42
2023/01/03 01:36:38;;;;;;;7.50;3.28;;;;;;;;;;5051973;28;20085;-42
2023/01/03 01:39:06;;;;;;;5.07;3.83;;;;;;;;;;5052314;28;20033;-42
2023/01/03 01:44:38;;;;;;;7.45;3.67;;;;;;;;;;5051838;28;20041;-41
2023/01/03 01:47:03;;;;;;;5.30;3.30;;;;;;;;;;5052125;28;20110;-42
2023/01/03 01:49:29;;;;;;;9.40;3.92;;;;;;;;;;5051706;28;20021;-42
2023/01/03 01:51:54;;;;;;;5.07;3.13;;;;;;;;;;5050428;28;20124;-41
2023/01/03 01:54:20;;;;;;;4.82;3.58;;;;;;;;;;5051770;28;20017;-41
2023/01/03 01:56:50;;;;;;;4.75;3.33;;;;;;;;;;5051575;28;20033;-41
2023/01/03 01:59:15;;;;;;;5.50;3.33;;;;;;;;;;5051684;28;20027;-41
2023/01/03 02:01:42;;;;;;;6.88;4.18;;;;;;;;;;5051495;28;20139;-42
2023/01/03 02:04:20;;;;;;;4.63;3.60;;;;;;;;;;5051747;28;20041;-42
2023/01/03 02:06:45;;;;;;;5.70;3.28;;;;;;;;;;5051470;28;20025;-42
2023/01/03 02:09:11;;;;;;;4.63;2.63;;;;;;;;;;5051878;28;20075;-42
2023/01/03 02:11:39;;;;;;;7.55;4.05;;;;;;;;;;5051719;28;20029;-41
2023/01/03 02:14:07;;;;;;;5.32;3.35;;;;;;;;;;5051672;28;20134;-41
2023/01/03 02:16:36;;;;;;;8.75;4.45;;;;;;;;;;5051496;28;20031;-42
2023/01/03 02:19:09;;;;;;;4.07;3.10;;;;;;;;;;5051585;28;20044;-42
2023/01/03 02:21:35;;;;;;;5.28;3.10;;;;;;;;;;5051621;28;20394;-42
2023/01/03 02:24:06;;;;;;;7.75;3.50;;;;;;;;;;5051252;28;20021;-41
2023/01/03 02:26:31;;;;;;;4.80;2.25;;;;;;;;;;5050798;28;20461;-41
2023/01/03 02:28:56;;;;;;;6.00;3.40;;;;;;;;;;5051253;28;20120;-41
2023/01/03 02:31:25;;;;;;;4.65;2.72;;;;;;;;;;5051261;28;20116;-41
2023/01/03 02:34:15;;;;;;;4.75;3.30;;;;;;;;;;5051119;28;20021;-42
2023/01/03 02:36:54;;;;;;;3.08;2.30;;;;;;;;;;5051229;28;20112;-42
2023/01/03 02:39:28;;;;;;;4.05;2.80;;;;;;;;;;5051462;28;20032;-41
2023/01/03 02:45:03;;;;;;;4.15;2.92;;;;;;;;;;5051127;28;20029;-41
2023/01/03 02:47:29;;;;;;;6.35;3.05;;;;;;;;;;5051033;28;20025;-42
2023/01/03 02:49:56;;;;;;;5.43;2.40;;;;;;;;;;5051099;28;20047;-42
2023/01/03 02:52:23;;;;;;;3.33;2.17;;;;;;;;;;5051397;28;20077;-42
2023/01/03 02:54:51;;;;;;;2.90;2.42;;;;;;;;;;5051273;28;20104;-42
2023/01/03 02:57:19;;;;;;;3.15;2.17;;;;;;;;;;5051088;28;20048;-42
2023/01/03 02:59:52;;;;;;;3.13;2.30;;;;;;;;;;5050956;28;20021;-42
2023/01/03 03:02:19;;;;;;;3.67;2.45;;;;;;;;;;5050963;28;20033;-42
2023/01/03 03:04:46;;;;;;;5.38;2.60;;;;;;;;;;5050831;28;20437;-42
2023/01/03 03:07:21;;;;;;;2.80;1.85;;;;;;;;;;5051246;28;20094;-41
2023/01/03 03:15:18;;;;;;;3.55;2.15;;;;;;;;;;5051099;28;20036;-42
2023/01/03 03:17:44;;;;;;;3.30;2.20;;;;;;;;;;5050799;28;20071;-42
2023/01/03 03:25:50;;;;;;;3.97;2.67;;;;;;;;;;5050817;28;20044;-41
2023/01/03 03:28:36;;;;;;;3.67;2.20;;;;;;;;;;5050985;28;20064;-42
2023/01/03 03:31:05;;;;;;;3.78;2.13;;;;;;;;;;5050878;28;20029;-42
2023/01/03 03:33:33;;;;;;;4.95;2.90;;;;;;;;;;5051049;28;20109;-42
2023/01/03 03:36:04;;;;;;;5.75;2.50;;;;;;;;;;5050623;28;20029;-42
2023/01/03 03:38:35;;;;;;;4.13;1.65;;;;;;;;;;5052602;28;20037;-41
2023/01/03 03:44:59;;;;;;;4.28;2.08;;;;;;;;;;5054032;28;20036;-42
2023/01/03 03:46:56;;;;;;;3.78;2.20;;;;;;;;;;5053972;28;20032;-41
2023/01/03 03:49:38;;;;;;;3.17;2.40;;;;;;;;;;5054128;28;20035;-42
2023/01/03 03:52:14;;;;;;;4.78;3.08;;;;;;;;;;5053163;28;20036;-42
2023/01/03 03:54:42;;;;;;;3.85;2.20;;;;;;;;;;5052673;28;20029;-42
2023/01/03 03:57:14;;;;;;;3.55;2.58;;;;;;;;;;5053918;28;20635;-41
2023/01/03 03:59:41;;;;;;;3.07;2.17;;;;;;;;;;5054160;28;20061;-42
2023/01/03 04:02:07;;;;;;;5.47;3.05;;;;;;;;;;5053700;28;20483;-41
2023/01/03 04:04:35;;;;;;;2.47;1.90;;;;;;;;;;5053714;28;20033;-42
2023/01/03 04:07:01;;;;;;;4.65;1.98;;;;;;;;;;5053835;28;20032;-42
2023/01/03 04:09:26;;;;;;;3.85;2.45;;;;;;;;;;5053797;28;20025;-42
2023/01/03 04:11:52;;;;;;;4.43;2.50;;;;;;;;;;5053549;28;20024;-42
2023/01/03 04:14:18;;;;;;;2.10;1.85;;;;;;;;;;5053909;28;20036;-42
2023/01/03 04:16:44;;;;;;;4.55;2.10;;;;;;;;;;5052310;28;20383;-43
2023/01/03 04:19:09;;;;;;;2.95;1.77;;;;;;;;;;5053736;28;20073;-42
2023/01/03 04:21:35;;;;;;;3.55;2.80;;;;;;;;;;5053539;28;20032;-41
2023/01/03 04:24:01;;;;;;;2.95;1.88;;;;;;;;;;5053289;28;20550;-41
2023/01/03 04:26:27;;;;;;;4.97;2.83;;;;;;;;;;5053663;28;20021;-41
2023/01/03 04:28:53;;;;;;;2.45;2.00;;;;;;;;;;5053290;28;20387;-41
2023/01/03 04:31:18;;;;;;;3.78;1.83;;;;;;;;;;5053318;28;20024;-41
2023/01/03 04:33:44;;;;;;;2.90;2.33;;;;;;;;;;5053149;28;20021;-42
2023/01/03 04:36:09;;;;;;;3.33;1.98;;;;;;;;;;5053491;28;20033;-42
2023/01/03 04:38:35;;;;;;;2.13;1.83;;;;;;;;;;5053155;28;20033;-43
2023/01/03 04:41:06;;;;;;;2.72;2.10;;;;;;;;;;5053216;28;20029;-41
2023/01/03 04:46:16;;;;;;;3.75;1.98;;;;;;;;;;5053040;28;20075;-42
2023/01/03 04:48:41;;;;;;;3.35;2.15;;;;;;;;;;5052434;28;20056;-41
2023/01/03 04:51:07;;;;;;;4.38;2.22;;;;;;;;;;5053487;28;20070;-41
2023/01/03 04:53:32;;;;;;;4.30;2.53;;;;;;;;;;5052834;28;20032;-42
2023/01/03 04:55:57;;;;;;;3.40;2.53;;;;;;;;;;5052786;28;20086;-41
2023/01/03 04:58:23;;;;;;;3.10;2.28;;;;;;;;;;5052807;28;20056;-41
2023/01/03 05:00:49;;;;;;;3.22;2.60;;;;;;;;;;5052513;28;20458;-41
2023/01/03 05:03:14;;;;;;;2.80;2.10;;;;;;;;;;5052548;28;20098;-41
2023/01/03 05:05:40;;;;;;;2.75;1.92;;;;;;;;;;5052628;28;20033;-41
2023/01/03 05:08:06;;;;;;;3.17;2.17;;;;;;;;;;5052576;28;20099;-42
2023/01/03 05:10:31;;;;;;;3.83;1.98;;;;;;;;;;5052534;28;20641;-42
2023/01/03 05:12:59;;;;;;;2.78;1.85;;;;;;;;;;5052581;28;20027;-44
2023/01/03 05:15:26;;;;;;;2.80;1.42;;;;;;;;;;5052715;28;20098;-41
2023/01/03 05:17:51;;;;;;;1.67;1.52;;;;;;;;;;5052597;28;20016;-42
2023/01/03 05:25:50;;;;;;;2.60;1.98;;;;;;;;;;5052242;28;20489;-42
2023/01/03 05:28:20;;;;;;;3.20;1.88;;;;;;;;;;5052260;28;20044;-41
2023/01/03 05:30:45;;;;;;;1.95;1.67;;;;;;;;;;5052063;28;20036;-42
2023/01/03 05:33:10;;;;;;;2.20;2.00;;;;;;;;;;5052407;28;20040;-41
2023/01/03 05:35:37;;;;;;;3.17;2.05;;;;;;;;;;5052156;28;20528;-42
2023/01/03 05:38:02;;;;;;;2.10;1.65;;;;;;;;;;5052045;28;20033;-42
2023/01/03 05:40:29;;;;;;;1.48;1.38;;;;;;;;;;5052077;28;20017;-42
2023/01/03 05:42:54;;;;;;;1.85;1.67;;;;;;;;;;5052107;28;20041;-42
2023/01/03 05:45:24;;;;;;;2.10;1.95;;;;;;;;;;5051875;28;20456;-42
2023/01/03 05:47:50;;;;;;;3.10;1.80;;;;;;;;;;5051809;28;20497;-42
2023/01/03 05:50:15;;;;;;;3.17;1.95;;;;;;;;;;5051937;28;20017;-42
2023/01/03 05:52:41;;;;;;;2.20;2.00;;;;;;;;;;5051716;28;20220;-42
2023/01/03 05:55:06;;;;;;;3.78;2.22;;;;;;;;;;5052072;28;20383;-42
2023/01/03 05:57:31;;;;;;;2.72;1.75;;;;;;;;;;5052021;28;20387;-46
2023/01/03 05:59:57;;;;;;;2.83;1.63;;;;;;;;;;5051238;28;20052;-42
2023/01/03 06:02:22;;;;;;;2.47;1.65;;;;;;;;;;5051311;28;20032;-42
2023/01/03 06:04:48;;;;;;;2.95;2.30;;;;;;;;;;5051533;28;20056;-42
2023/01/03 06:07:13;;;;;;;2.30;2.03;;;;;;;;;;5051860;28;20028;-41
2023/01/03 06:09:38;;;;;;;2.67;1.50;;;;;;;;;;5051779;28;20029;-42
2023/01/03 06:12:04;;;;;;;1.85;1.58;;;;;;;;;;5051488;28;20055;-42
2023/01/03 06:14:29;;;;;;;2.78;1.58;;;;;;;;;;5051754;28;20017;-42
2023/01/03 06:19:39;;;;;;;2.65;1.80;;;;;;;;;;5051367;28;20033;-42
2023/01/03 06:22:04;;;;;;;3.08;2.03;;;;;;;;;;5051301;28;20067;-41
2023/01/03 06:24:29;;;;;;;2.40;2.03;;;;;;;;;;5050080;28;20060;-42
2023/01/03 06:26:55;;;;;;;2.63;1.65;;;;;;;;;;5051507;28;20028;-42
2023/01/03 06:29:20;;;;;;;1.88;1.67;;;;;;;;;;5051324;28;20033;-42
2023/01/03 06:31:46;;;;;;;3.17;2.03;;;;;;;;;;5051576;28;20021;-42
2023/01/03 06:34:13;;;;;;;3.97;1.25;;;;;;;;;;5051569;28;20029;-42
2023/01/03 06:36:38;;;;;;;4.38;2.20;;;;;;;;;;5051190;28;20467;-42
2023/01/03 06:39:04;;;;;;;3.50;2.05;;;;;;;;;;5051597;28;20025;-42
2023/01/03 06:41:29;;;;;;;2.28;1.98;;;;;;;;;;5051434;28;20100;-42
2023/01/03 06:43:55;;;;;;;6.13;2.40;;;;;;;;;;5051028;28;20033;-42
2023/01/03 06:54:36;;;;;;;3.88;2.60;;;;;;;;;;5051109;28;20394;-42
2023/01/03 06:57:02;;;;;;;4.78;2.60;;;;;;;;;;5050987;28;20021;-41
2023/01/03 06:59:27;;;;;;;4.90;3.08;;;;;;;;;;5051370;28;20231;-41
2023/01/03 07:01:53;;;;;;;3.58;2.42;;;;;;;;;;5051294;28;20079;-42
2023/01/03 07:04:19;;;;;;;3.10;2.05;;;;;;;;;;5050871;28;20045;-41
2023/01/03 07:06:45;;;;;;;2.28;1.90;;;;;;;;;;5050923;28;20035;-42
2023/01/03 07:09:11;;;;;;;3.83;2.28;;;;;;;;;;5051033;28;20028;-41
2023/01/03 07:11:37;;;;;;;4.00;2.83;;;;;;;;;;5051577;28;20063;-42
2023/01/03 07:14:02;;;;;;;4.75;3.15;;;;;;;;;;5054948;28;20036;-42
2023/01/03 07:16:29;;;;;;;3.13;2.30;;;;;;;;;;5054767;28;20427;-42
2023/01/03 07:18:55;;;;;;;4.97;1.95;;;;;;;;;;5054830;28;20025;-42
2023/01/03 07:21:25;;;;;;;2.38;2.05;;;;;;;;;;5054713;28;20455;-41
2023/01/03 07:23:53;;;;;;;4.95;2.92;;;;;;;;;;5054343;28;20494;-42
2023/01/03 07:26:19;;;;;;;3.60;2.15;;;;;;;;;;5054586;28;20100;-42
2023/01/03 07:28:45;;;;;;;3.45;2.10;;;;;;;;;;5054449;28;20447;-42
2023/01/03 07:31:10;;;;;;;3.08;1.95;;;;;;;;;;5054691;28;20028;-42
2023/01/03 07:33:37;;;;;;;2.90;1.98;;;;;;;;;;5054314;28;20056;-41
2023/01/03 07:36:04;;;;;;;5.03;2.25;;;;;;;;;;5054295;28;20463;-42
2023/01/03 07:38:30;;;;;;;4.80;2.30;;;;;;;;;;5054252;28;20060;-41
2023/01/03 07:40:58;;;;;;;4.00;2.33;;;;;;;;;;5054278;28;20052;-41
2023/01/03 07:43:36;;;;;;;6.13;2.88;;;;;;;;;;5054353;28;20041;-41
2023/01/03 07:46:06;;;;;;;2.72;2.47;;;;;;;;;;5054418;28;20399;-41
2023/01/03 07:48:32;;;;;;;2.97;2.42;;;;;;;;;;5052645;28;20431;-41
2023/01/03 07:50:57;;;;;;;3.15;1.98;;;;;;;;;;5054054;28;20032;-41
2023/01/03 07:53:23;;;;;;;3.63;2.55;;;;;;;;;;5054251;28;20021;-42
2023/01/03 07:55:48;;;;;;;3.25;2.47;;;;;;;;;;5053972;28;20028;-42
2023/01/03 07:58:14;;;;;;;3.72;2.00;;;;;;;;;;5054000;28;20105;-42
2023/01/03 08:00:40;;;;;;;3.13;2.35;;;;;;;;;;5053583;28;20037;-41
2023/01/03 08:03:06;;;;;;;2.50;2.03;;;;;;;;;;5053830;28;20041;-41
2023/01/03 08:05:33;;;;;;;4.18;2.95;;;;;;;;;;5053750;28;20040;-41
2023/01/03 08:07:58;;;;;;;4.40;2.22;;;;;;;;;;5053433;28;20391;-41
2023/01/03 08:13:17;;;;;;;3.05;2.10;;;;;;;;;;5053913;28;20055;-41
2023/01/03 08:15:44;;;;;;;3.90;3.20;;;;;;;;;;5052495;28;20021;-42
2023/01/03 08:18:11;;;;;;;3.53;2.95;;;;;;;;;;5053616;28;20025;-41
2023/01/03 08:20:37;;;;;;;4.03;3.05;;;;;;;;;;5053527;28;20077;-41
2023/01/03 08:23:02;;;;;;;3.80;3.05;;;;;;;;;;5052758;28;20032;-41
2023/01/03 08:25:27;;;;;;;3.17;2.88;;;;;;;;;;5053310;28;20593;-41
2023/01/03 08:27:56;;;;;;;4.28;2.75;;;;;;;;;;5053274;28;20010;-42
2023/01/03 08:30:22;;;;;;;4.32;3.05;;;;;;;;;;5053345;28;20484;-41
2023/01/03 08:32:47;;;;;;;4.13;2.63;;;;;;;;;;5053241;28;20028;-42
2023/01/03 08:35:15;;;;;;;3.15;2.72;;;;;;;;;;5053217;28;20779;-41
2023/01/03 08:37:41;;;;;;;3.65;2.30;;;;;;;;;;5052309;28;20025;-42
2023/01/03 08:40:09;;;;;;;5.30;3.08;;;;;;;;;;5053238;28;20483;-42
2023/01/03 08:42:35;;;;;;;4.13;2.55;;;;;;;;;;5052966;28;20043;-41
2023/01/03 08:45:02;;;;;;;5.00;1.92;;;;;;;;;;5053356;28;20096;-41
2023/01/03 08:47:28;;;;;;;2.30;1.92;;;;;;;;;;5053011;28;20028;-41
2023/01/03 08:49:54;;;;;;;4.22;2.80;;;;;;;;;;5053162;28;20017;-42
2023/01/03 08:52:19;;;;;;;4.35;2.55;;;;;;;;;;5052966;28;20021;-42
2023/01/03 08:54:45;;;;;;;3.63;2.72;;;;;;;;;;5051884;28;20040;-41
2023/01/03 08:57:10;;;;;;;3.97;2.20;;;;;;;;;;5052793;28;20119;-42
2023/01/03 08:59:36;;;;;;;3.20;2.25;;;;;;;;;;5053067;28;20028;-41
2023/01/03 09:02:02;;;;;;;5.22;3.13;;;;;;;;;;5052591;28;20053;-42
2023/01/03 09:04:27;;;;;;;3.65;2.78;;;;;;;;;;5052884;28;20048;-42
2023/01/03 09:06:52;;;;;;;3.72;2.05;;;;;;;;;;5052628;28;20451;-42
2023/01/03 09:09:18;;;;;;;2.63;1.90;;;;;;;;;;5052685;28;20032;-41
2023/01/03 09:11:43;;;;;;;2.80;2.42;;;;;;;;;;5052728;28;20017;-41
2023/01/03 09:14:08;;;;;;;3.55;2.20;;;;;;;;;;5052512;28;20029;-41
2023/01/03 09:16:34;;;;;;;3.65;2.30;;;;;;;;;;5052574;28;20478;-41
2023/01/03 09:19:01;;;;;;;3.60;2.80;;;;;;;;;;5052288;28;20472;-41
2023/01/03 09:21:28;;;;;;;3.08;2.20;;;;;;;;;;5052371;28;20066;-41
2023/01/03 09:23:54;;;;;;;4.07;2.70;;;;;;;;;;5052153;28;20071;-41
2023/01/03 09:26:19;;;;;;;2.88;2.22;;;;;;;;;;5052282;28;20463;-41
2023/01/03 09:28:45;;;;;;;4.45;2.20;;;;;;;;;;5052517;28;20025;-41
2023/01/03 09:31:10;;;;;;;3.38;2.22;;;;;;;;;;5052547;28;20487;-41
2023/01/03 09:33:36;;;;;;;3.72;2.38;;;;;;;;;;5052032;28;20425;-42
2023/01/03 09:36:01;;;;;;;4.30;2.58;;;;;;;;;;5052338;28;20108;-41
2023/01/03 09:38:27;;;;;;;3.38;3.00;;;;;;;;;;5052109;28;20475;-41
2023/01/03 09:41:00;;;;;;;4.18;2.42;;;;;;;;;;5050631;28;20021;-41
2023/01/03 09:43:30;;;;;;;3.75;3.05;;;;;;;;;;5050578;28;20068;-41
2023/01/03 09:45:58;;;;;;;3.15;2.25;;;;;;;;;;5051938;28;20021;-41
2023/01/03 09:48:36;;;;;;;3.80;3.35;;;;;;;;;;5051900;28;20084;-41
2023/01/03 09:51:02;;;;;;;3.38;2.63;;;;;;;;;;5052118;28;20440;-42
2023/01/03 10:05:06;;;;;;;4.13;2.70;;;;;;;;;;5051546;28;20040;-42
2023/01/03 10:07:45;;;;;;;2.55;1.77;;;;;;;;;;5051871;28;20052;-42
2023/01/03 10:10:11;;;;;;;2.45;2.25;;;;;;;;;;5051582;28;20079;-42
2023/01/03 10:12:53;;;;;;;2.47;1.52;;;;;;;;;;5051740;28;20068;-41
2023/01/03 10:15:28;;;;;;;4.30;1.85;;;;;;;;;;5051802;28;20103;-42
2023/01/03 10:17:57;;;;;;;3.72;2.63;;;;;;;;;;5051396;28;20040;-41
2023/01/03 10:20:25;;;;;;;2.63;2.15;;;;;;;;;;5050234;28;20112;-41
2023/01/03 10:22:53;;;;;;;3.88;2.08;;;;;;;;;;5051181;28;20108;-41
2023/01/03 10:25:20;;;;;;;4.20;2.80;;;;;;;;;;5051668;28;20032;-41
2023/01/03 10:27:47;;;;;;;3.92;2.47;;;;;;;;;;5051250;28;20167;-41
2023/01/03 10:30:14;;;;;;;2.72;2.00;;;;;;;;;;5051241;28;20636;-41
2023/01/03 10:32:53;;;;;;;4.18;2.45;;;;;;;;;;5051543;28;20028;-41
2023/01/03 10:35:22;;;;;;;4.57;2.55;;;;;;;;;;5051373;28;20017;-41
2023/01/03 10:37:52;;;;;;;3.90;2.20;;;;;;;;;;5051116;28;20082;-42
2023/01/03 10:40:17;;;;;;;6.07;2.78;;;;;;;;;;5051246;28;20654;-41
2023/01/03 10:42:43;;;;;;;2.65;2.28;;;;;;;;;;5051244;28;20120;-41
2023/01/03 10:45:11;;;;;;;4.10;2.20;;;;;;;;;;5051490;28;20029;-41
2023/01/03 10:47:36;;;;;;;3.83;2.35;;;;;;;;;;5053753;28;20378;-42
2023/01/03 10:50:03;;;;;;;3.25;2.70;;;;;;;;;;5055431;28;20116;-42
2023/01/03 10:52:31;;;;;;;3.78;2.10;;;;;;;;;;5055151;28;20108;-41
2023/01/03 10:55:10;;;;;;;4.28;2.58;;;;;;;;;;5055136;28;20123;-41
2023/01/03 10:57:38;;;;;;;6.35;2.35;;;;;;;;;;5055149;28;20119;-41
2023/01/03 11:00:20;;;;;;;4.38;2.47;;;;;;;;;;5054791;28;20021;-42
2023/01/03 11:02:47;;;;;;;4.27;2.40;;;;;;;;;;5054896;28;20047;-41
2023/01/03 11:05:17;;;;;;;4.50;2.97;;;;;;;;;;5054714;28;20869;-41
2023/01/03 11:07:43;;;;;;;2.97;2.00;;;;;;;;;;5054912;28;20033;-41
2023/01/03 11:10:16;;;;;;;4.10;2.88;;;;;;;;;;5054937;28;20024;-41
2023/01/03 11:12:41;;;;;;;2.83;2.40;;;;;;;;;;5055064;28;20059;-41
2023/01/03 11:15:14;;;;;;;3.47;2.58;;;;;;;;;;5055065;28;20021;-41
2023/01/03 11:17:59;;;;;;;3.45;2.47;;;;;;;;;;5054767;28;20044;-41
2023/01/03 11:20:44;;;;;;;4.07;2.60;;;;;;;;;;5054922;28;20417;-41
2023/01/03 11:23:30;;;;;;;5.95;2.88;;;;;;;;;;5043207;28;20044;-45
2023/01/03 11:26:13;;;;;;;2.58;2.17;;;;;;;;;;5043126;28;20040;-41
2023/01/03 11:28:39;;;;;;;;;;;;;;;;;;5055008;28;20441;-41
2023/01/03 11:31:19;;;;;;;2.92;1.92;;;;;;;;;;5054384;28;19952;-42
2023/01/03 11:33:53;;;;;;;4.63;2.90;;;;;;;;;;5054264;28;20402;-41
2023/01/03 11:36:22;;;;;;;5.22;3.05;;;;;;;;;;5054419;28;20075;-41
2023/01/03 11:39:05;;;;;;;4.10;2.80;;;;;;;;;;5054526;28;20017;-41
2023/01/03 11:41:49;;;;;;;3.40;2.53;;;;;;;;;;5054235;28;20021;-41
2023/01/03 11:44:41;;;;;;;4.43;2.58;;;;;;;;;;5054141;28;20103;-41
2023/01/03 11:47:25;;;;;;;4.70;2.95;;;;;;;;;;5054062;28;20044;-41
2023/01/03 11:49:50;;;;;;;4.68;3.03;;;;;;;;;;5054053;28;20028;-42
2023/01/03 11:52:34;;;;;;;4.53;3.13;;;;;;;;;;5052902;28;20025;-41
2023/01/03 11:55:12;;;;;;;5.18;2.53;;;;;;;;;;5053891;28;20534;-41
2023/01/03 11:57:49;;;;;;;5.78;3.28;;;;;;;;;;5053888;28;20086;-41
2023/01/03 12:00:21;;;;;;;2.15;1.80;;;;;;;;;;5053478;28;20041;-41
2023/01/03 12:02:46;;;;;;;3.35;2.17;;;;;;;;;;5053661;28;20500;-41
2023/01/03 12:05:21;;;;;;;5.90;2.97;;;;;;;;;;5053924;28;20078;-41
2023/01/03 12:07:53;;;;;;;7.28;3.60;;;;;;;;;;5054052;28;20104;-41
2023/01/03 12:10:38;;;;;;;5.88;2.88;;;;;;;;;;5053725;28;20488;-41
2023/01/03 12:13:04;;;;;;;5.78;2.75;;;;;;;;;;5053328;28;20044;-41
2023/01/03 12:15:36;;;;;;;5.32;2.83;;;;;;;;;;5053923;28;20023;-43
2023/01/03 12:18:04;;;;;;;4.88;3.08;;;;;;;;;;5053771;28;20056;-41
2023/01/03 12:20:33;;;;;;;4.72;2.20;;;;;;;;;;5053571;28;20017;-41
2023/01/03 12:23:17;;;;;;;4.10;2.60;;;;;;;;;;5053260;28;20033;-41
2023/01/03 12:25:46;;;;;;;3.35;2.20;;;;;;;;;;5053747;28;20082;-41
2023/01/03 12:28:23;;;;;;;5.68;2.63;;;;;;;;;;5052433;28;20096;-41
2023/01/03 12:31:00;;;;;;;5.40;2.83;;;;;;;;;;5053279;28;20502;-41
2023/01/03 12:33:44;;;;;;;2.35;1.60;;;;;;;;;;5053280;28;20142;-41
2023/01/03 12:36:25;;;;;;;4.60;2.20;;;;;;;;;;5053139;28;20442;-41
2023/01/03 12:39:14;;;;;;;4.95;2.85;;;;;;;;;;5053196;28;20104;-41
2023/01/03 12:41:54;;;;;;;3.38;2.70;;;;;;;;;;5053172;28;20036;-41
2023/01/03 12:44:26;;;;;;;3.25;2.33;;;;;;;;;;5053253;28;20086;-41
2023/01/03 12:46:54;;;;;;;4.03;2.58;;;;;;;;;;5053034;28;20033;-41
2023/01/03 12:49:41;;;;;;;3.78;2.15;;;;;;;;;;5053090;28;20028;-41
2023/01/03 12:52:12;;;;;;;3.30;2.00;;;;;;;;;;5052894;28;20052;-41
2023/01/03 12:54:38;;;;;;;4.10;2.92;;;;;;;;;;5052902;28;20074;-42
2023/01/03 12:57:19;;;;;;;4.40;2.83;;;;;;;;;;5051578;28;20017;-41
2023/01/03 12:59:44;;;;;;;4.55;2.40;;;;;;;;;;5051509;28;20067;-41
2023/01/03 13:02:23;;;;;;;4.38;2.75;;;;;;;;;;5052559;28;20447;-40
2023/01/03 13:04:51;;;;;;;4.25;2.97;;;;;;;;;;5052682;28;20033;-41
2023/01/03 13:07:27;;;;;;;6.10;2.40;;;;;;;;;;5052677;28;20017;-41
2023/01/03 13:09:58;;;;;;;7.93;3.63;;;;;;;;;;5052202;28;20021;-41
2023/01/03 13:12:29;;;;;;;5.75;2.47;;;;;;;;;;5052550;28;20039;-41
2023/01/03 13:15:01;;;;;;;5.97;3.45;;;;;;;;;;5051055;28;20033;-46
2023/01/03 13:17:28;;;;;;;10.55;4.18;;;;;;;;;;5052469;28;20048;-41
2023/01/03 13:19:53;;;;;;;7.50;4.07;;;;;;;;;;5052304;28;20025;-41
2023/01/03 13:22:37;;;;;;;7.40;4.13;;;;;;;;;;5052467;28;20158;-41
2023/01/03 13:25:22;;;;;;;5.03;2.83;;;;;;;;;;5052211;28;20033;-41
2023/01/03 13:27:49;;;;;;;6.70;2.88;;;;;;;;;;5052411;28;20114;-41
2023/01/03 13:30:35;;;;;;;6.60;3.20;;;;;;;;;;5052504;28;20024;-44
2023/01/03 13:33:15;;;;;;;5.95;2.42;;;;;;;;;;5051174;28;20044;-41
2023/01/03 13:35:43;;;;;;;7.57;3.40;;;;;;;;;;5052397;28;20090;-41
2023/01/03 13:38:18;;;;;;;9.77;3.83;;;;;;;;;;5052095;28;20055;-41
2023/01/03 13:40:47;;;;;;;10.10;3.72;;;;;;;;;;5052010;28;20455;-41
2023/01/03 13:43:15;;;;;;;6.28;3.28;;;;;;;;;;5051918;28;20384;-41
2023/01/03 13:45:41;;;;;;;7.28;3.20;;;;;;;;;;5052230;28;20056;-41
2023/01/03 13:48:10;;;;;;;5.18;3.22;;;;;;;;;;5051787;28;20103;-41
2023/01/03 13:50:36;;;;;;;12.52;5.05;;;;;;;;;;5051835;28;20032;-41
2023/01/03 13:53:10;;;;;;;6.40;3.78;;;;;;;;;;5051791;28;20100;-41
2023/01/03 13:55:38;;;;;;;5.18;2.78;;;;;;;;;;5051745;28;20036;-41
2023/01/03 13:58:22;;;;;;;5.75;3.47;;;;;;;;;;5051989;28;20075;-41
2023/01/03 14:00:48;;;;;;;8.07;3.33;;;;;;;;;;5051439;28;20507;-41
2023/01/03 14:03:23;;;;;;;5.53;3.03;;;;;;;;;;5051781;28;20103;-41
2023/01/03 14:05:49;;;;;;;9.52;3.78;;;;;;;;;;5051500;28;20036;-41
2023/01/03 14:08:15;;;;;;;6.72;3.47;;;;;;;;;;5051938;28;20484;-42
2023/01/03 14:10:59;;;;;;;6.22;3.22;;;;;;;;;;5051875;28;20128;-41
2023/01/03 14:13:24;;;;;;;7.97;3.22;;;;;;;;;;5051498;28;20029;-41
2023/01/03 14:16:04;;;;;;;4.53;2.63;;;;;;;;;;5051472;28;20025;-41
2023/01/03 14:18:31;;;;;;;4.50;2.45;;;;;;;;;;5051532;28;20044;-41
2023/01/03 14:20:57;;;;;;;5.40;2.53;;;;;;;;;;5050991;28;20021;-41
2023/01/03 14:23:25;;;;;;;9.10;4.07;;;;;;;;;;5051056;28;20079;-41
2023/01/03 14:25:51;;;;;;;3.45;2.78;;;;;;;;;;5050103;28;20371;-41
2023/01/03 14:28:17;;;;;;;5.47;2.88;;;;;;;;;;5051340;28;20112;-41
2023/01/03 14:30:43;;;;;;;4.93;2.45;;;;;;;;;;5051316;28;20014;-41
2023/01/03 14:33:16;;;;;;;5.13;3.10;;;;;;;;;;5051475;28;20036;-41
2023/01/03 14:35:43;;;;;;;5.63;2.78;;;;;;;;;;5051346;28;20071;-41
2023/01/03 14:38:32;;;;;;;4.53;2.72;;;;;;;;;;5051204;28;20514;-41
2023/01/03 14:40:58;;;;;;;5.38;2.72;;;;;;;;;;5051240;28;20194;-41
2023/01/03 14:43:24;;;;;;;7.53;3.75;;;;;;;;;;5051126;28;20017;-41
2023/01/03 14:45:54;;;;;;;5.43;3.25;;;;;;;;;;5051163;28;20032;-41
2023/01/03 14:48:22;;;;;;;5.22;2.75;;;;;;;;;;5051242;28;20107;-41
2023/01/03 14:50:49;;;;;;;3.97;2.83;;;;;;;;;;5051173;28;20044;-41
2023/01/03 14:53:14;;;;;;;4.53;2.33;;;;;;;;;;5051324;28;20021;-41
2023/01/03 14:55:41;;;;;;;5.07;3.42;;;;;;;;;;5051180;28;20356;-41
2023/01/03 14:58:26;;;;;;;5.20;2.75;;;;;;;;;;5050278;28;20083;-41
2023/01/03 15:00:53;;;;;;;6.85;2.70;;;;;;;;;;5050826;28;20135;-41
2023/01/03 15:03:19;;;;;;;7.18;2.53;;;;;;;;;;5051039;28;20049;-41
2023/01/03 15:05:45;;;;;;;4.05;2.53;;;;;;;;;;5051070;28;20029;-41
2023/01/03 15:08:13;;;;;;;4.68;2.35;;;;;;;;;;5049586;28;20021;-41
2023/01/03 15:10:43;;;;;;;6.10;3.05;;;;;;;;;;5049677;28;20029;-41
2023/01/03 15:13:22;;;;;;;6.45;3.30;;;;;;;;;;5049594;28;20468;-42
2023/01/03 15:15:55;;;;;;;8.25;3.15;;;;;;;;;;5050884;28;20029;-42
2023/01/03 15:18:26;;;;;;;8.55;3.15;;;;;;;;;;5033123;28;20434;-42
2023/01/03 15:20:52;;;;;;;5.20;3.60;;;;;;;;;;5049471;28;20056;-42
2023/01/03 15:23:38;;;;;;;8.18;3.58;;;;;;;;;;5050717;28;20506;-41
2023/01/03 15:26:05;;;;;;;8.40;3.05;;;;;;;;;;5050754;28;20471;-42
2023/01/03 15:28:47;;;;;;;8.27;3.00;;;;;;;;;;5050773;28;20017;-41
2023/01/03 15:31:20;;;;;;;5.30;2.92;;;;;;;;;;5050779;28;20563;-41
2023/01/03 15:33:45;;;;;;;;;;;;;;;;;;5053850;28;20429;-41
2023/01/03 15:36:13;;;;;;;8.23;3.60;;;;;;;;;;5054286;28;19905;-41
2023/01/03 15:38:42;;;;;;;7.22;3.00;;;;;;;;;;5054381;28;20029;-41
2023/01/03 15:44:13;;;;;;;5.15;2.70;;;;;;;;;;5054148;28;20139;-42
2023/01/03 15:46:43;;;;;;;4.03;2.78;;;;;;;;;;5053033;28;20013;-41
2023/01/03 15:49:11;;;;;;;8.27;4.05;;;;;;;;;;5054312;28;20045;-42
2023/01/03 15:51:36;;;;;;;4.05;2.47;;;;;;;;;;5054073;28;20021;-41